Time;durP1;ratioP1;P1;durP2;ratioP2;P2;SDS_P1;SDS_P2;PMS_P1;PMS_P2;Temp;Humidity;BMP_temperature;BMP_pressure;BME280_temperature;BME280_humidity;BME280_pressure;Samples;Min_cycle;Max_cycle;Signal;HPM_P1;HPM_P2
2023/01/08 00:00:45;;;;;;;3.90;2.50;;;;;;;5.20;56.54;94652.59;4980523;28;20101;-67
2023/01/08 00:03:10;;;;;;;2.63;2.25;;;;;;;5.97;54.63;94641.59;4982372;28;20080;-67
2023/01/08 00:05:36;;;;;;;2.47;2.10;;;;;;;5.83;54.64;94633.44;4981094;28;20090;-67
2023/01/08 00:08:02;;;;;;;1.75;1.65;;;;;;;5.05;57.40;94643.69;4982275;28;20159;-67
2023/01/08 00:10:27;;;;;;;2.17;2.00;;;;;;;5.03;57.26;94637.78;4980721;28;20098;-67
2023/01/08 00:12:54;;;;;;;3.47;2.20;;;;;;;4.90;57.50;94644.34;4968177;28;20070;-67
2023/01/08 00:15:20;;;;;;;2.38;2.17;;;;;;;5.39;56.51;94640.03;4980175;28;20068;-67
2023/01/08 00:17:45;;;;;;;4.65;3.35;;;;;;;5.84;55.22;94626.31;4979733;28;20088;-67
2023/01/08 00:20:11;;;;;;;3.97;2.20;;;;;;;6.44;53.47;94625.81;4981334;28;20065;-67
2023/01/08 00:22:36;;;;;;;1.90;1.73;;;;;;;5.77;55.34;94649.13;4983811;28;20138;-67
2023/01/08 00:25:02;;;;;;;4.60;3.20;;;;;;;6.06;54.67;94634.47;4980615;28;20099;-67
2023/01/08 00:27:27;;;;;;;3.20;2.03;;;;;;;5.02;57.94;94629.03;4981115;28;20060;-67
2023/01/08 00:29:53;;;;;;;2.55;2.35;;;;;;;4.50;59.19;94625.75;4981590;28;20126;-67
2023/01/08 00:32:18;;;;;;;2.38;1.80;;;;;;;4.89;58.48;94624.25;4982467;28;20099;-67
2023/01/08 00:34:43;;;;;;;4.22;2.35;;;;;;;5.30;57.38;94627.81;4981212;28;20453;-67
2023/01/08 00:37:09;;;;;;;3.40;2.50;;;;;;;4.12;60.01;94638.56;4980850;28;20099;-67
2023/01/08 00:39:34;;;;;;;2.33;2.13;;;;;;;4.21;61.41;94640.22;4982785;28;20167;-67
2023/01/08 00:42:00;;;;;;;3.55;2.90;;;;;;;4.88;58.77;94625.25;4980686;28;20094;-67
2023/01/08 00:44:25;;;;;;;3.35;2.30;;;;;;;5.21;57.42;94621.75;4980746;28;20555;-67
2023/01/08 00:46:50;;;;;;;2.35;2.00;;;;;;;5.48;56.53;94625.78;4980859;28;20085;-67
2023/01/08 00:49:16;;;;;;;2.97;2.58;;;;;;;4.79;57.95;94623.59;4981739;28;20118;-67
2023/01/08 00:51:41;;;;;;;3.30;2.40;;;;;;;5.76;55.93;94623.72;4983928;28;20532;-67
2023/01/08 00:54:08;;;;;;;2.30;2.00;;;;;;;6.17;55.17;94617.38;4980405;28;20089;-67
2023/01/08 00:56:33;;;;;;;3.05;2.20;;;;;;;6.53;53.82;94614.19;4982230;28;20392;-67
2023/01/08 00:58:59;;;;;;;2.97;1.95;;;;;;;6.34;54.29;94618.09;4980244;28;20116;-67
2023/01/08 01:01:24;;;;;;;2.20;2.00;;;;;;;6.41;54.13;94629.63;4980550;28;20087;-67
2023/01/08 01:03:50;;;;;;;2.38;2.10;;;;;;;6.59;53.77;94623.22;4981178;28;20054;-67
2023/01/08 01:06:15;;;;;;;3.95;2.50;;;;;;;5.72;55.60;94615.31;4980389;28;20119;-67
2023/01/08 01:08:40;;;;;;;4.82;3.20;;;;;;;5.74;56.16;94608.88;4980177;28;20306;-67
2023/01/08 01:11:07;;;;;;;2.63;2.30;;;;;;;6.47;54.01;94620.16;4981048;28;20435;-67
2023/01/08 01:13:33;;;;;;;3.25;2.42;;;;;;;6.17;54.81;94602.38;4979562;28;20552;-67
2023/01/08 01:15:58;;;;;;;3.75;3.10;;;;;;;5.79;56.23;94608.34;4983068;28;20071;-67
2023/01/08 01:18:24;;;;;;;4.13;2.38;;;;;;;6.08;54.99;94604.22;4964868;28;20084;-67
2023/01/08 01:20:50;;;;;;;2.90;2.17;;;;;;;6.09;55.62;94603.22;4980663;28;20075;-67
2023/01/08 01:23:15;;;;;;;4.13;2.70;;;;;;;5.61;57.02;94601.50;4980459;28;20077;-67
2023/01/08 01:25:41;;;;;;;15.45;6.43;;;;;;;6.49;54.23;94611.09;4979901;28;20071;-67
2023/01/08 01:28:06;;;;;;;3.05;2.33;;;;;;;6.54;54.01;94604.44;4981393;28;20080;-67
2023/01/08 01:30:31;;;;;;;3.88;2.55;;;;;;;6.31;54.75;94600.78;4980162;28;20427;-67
2023/01/08 01:32:57;;;;;;;3.70;2.65;;;;;;;5.24;57.85;94615.31;4979611;28;20411;-67
2023/01/08 01:35:22;;;;;;;3.42;2.38;;;;;;;4.83;59.96;94612.56;4982349;28;20539;-67
2023/01/08 01:37:48;;;;;;;4.35;3.00;;;;;;;3.84;63.02;94621.19;4979523;28;20430;-67
2023/01/08 01:40:13;;;;;;;3.17;2.40;;;;;;;5.18;58.92;94607.09;4978964;28;20411;-67
2023/01/08 01:42:38;;;;;;;2.92;2.60;;;;;;;5.45;58.22;94612.13;4978272;28;20323;-67
2023/01/08 01:45:25;;;;;;;2.65;2.33;;;;;;;5.34;58.21;94613.31;4982978;28;20091;-67
2023/01/08 01:48:19;;;;;;;4.00;2.50;;;;;;;5.86;57.46;94597.91;4980690;28;20512;-67
2023/01/08 01:50:49;;;;;;;2.88;2.22;;;;;;;5.78;57.09;94597.97;4960226;28;20091;-67
2023/01/08 01:53:28;;;;;;;3.72;2.75;;;;;;;6.22;56.00;94592.06;4963172;28;20331;-67
2023/01/08 01:55:53;;;;;;;3.70;2.40;;;;;;;6.35;55.66;94591.50;4961083;28;20550;-67
2023/01/08 01:58:29;;;;;;;3.90;2.75;;;;;;;4.69;61.08;94608.78;4963241;28;20140;-67
2023/01/08 02:00:55;;;;;;;6.20;2.90;;;;;;;4.42;60.83;94605.47;4977162;28;20052;-67
2023/01/08 02:03:22;;;;;;;4.00;2.80;;;;;;;5.34;59.00;94608.84;4978692;28;20073;-67
2023/01/08 02:05:51;;;;;;;3.80;2.90;;;;;;;5.44;57.60;94605.22;4979008;28;20123;-67
2023/01/08 02:08:24;;;;;;;5.00;3.50;;;;;;;5.33;58.90;94582.63;4979012;28;20302;-67
2023/01/08 02:11:16;;;;;;;2.92;2.53;;;;;;;5.45;58.26;94599.72;4978854;28;20171;-67
2023/01/08 02:13:44;;;;;;;4.70;2.67;;;;;;;5.57;58.15;94594.06;4972957;28;20082;-67
2023/01/08 02:16:15;;;;;;;3.97;2.55;;;;;;;5.10;59.81;94599.19;4949609;28;20061;-67
2023/01/08 02:18:47;;;;;;;4.93;3.08;;;;;;;5.47;59.97;94600.41;4979430;28;20095;-67
2023/01/08 02:21:39;;;;;;;5.18;3.38;;;;;;;6.06;58.49;94590.34;4964526;28;20084;-67
2023/01/08 02:24:36;;;;;;;4.47;2.80;;;;;;;6.29;56.68;94583.47;4970618;28;20833;-67
2023/01/08 02:27:01;;;;;;;4.57;3.00;;;;;;;6.43;56.11;94580.03;4966283;28;20067;-67
2023/01/08 02:29:27;;;;;;;5.03;2.72;;;;;;;6.47;54.80;94585.78;4945186;28;20149;-67
2023/01/08 02:31:52;;;;;;;5.82;3.80;;;;;;;6.67;55.19;94569.47;4966910;28;20054;-67
2023/01/08 02:34:18;;;;;;;5.82;3.88;;;;;;;7.01;54.03;94576.09;4962459;28;20075;-67
2023/01/08 02:36:44;;;;;;;6.05;3.70;;;;;;;6.84;54.45;94572.78;4978647;28;20058;-67
2023/01/08 02:39:38;;;;;;;4.10;3.28;;;;;;;6.55;54.89;94561.13;4969320;28;20138;-67
2023/01/08 02:42:34;;;;;;;5.25;3.95;;;;;;;7.28;53.57;94548.16;4969593;28;20093;-67
2023/01/08 02:45:07;;;;;;;9.98;5.80;;;;;;;7.00;53.55;94547.97;4963232;28;20053;-67
2023/01/08 02:47:41;;;;;;;8.57;5.45;;;;;;;7.19;53.37;94545.78;4961786;28;20148;-67
2023/01/08 02:50:21;;;;;;;3.75;3.00;;;;;;;6.11;56.58;94543.09;4948063;28;20080;-67
2023/01/08 02:53:08;;;;;;;4.75;3.05;;;;;;;7.32;53.71;94523.97;4977637;28;20119;-67
2023/01/08 02:55:34;;;;;;;6.53;3.10;;;;;;;6.87;54.91;94527.44;4982919;28;20063;-67
2023/01/08 02:57:59;;;;;;;6.53;4.63;;;;;;;6.87;54.77;94524.81;4970373;28;20079;-67
2023/01/08 03:00:24;;;;;;;3.78;3.00;;;;;;;6.76;54.84;94512.81;4971529;28;20072;-67
2023/01/08 03:02:51;;;;;;;3.85;3.00;;;;;;;6.64;55.26;94513.25;4951929;28;20080;-67
2023/01/08 03:05:21;;;;;;;5.85;4.18;;;;;;;5.90;57.11;94513.84;4951613;28;20094;-67
2023/01/08 03:07:47;;;;;;;4.90;3.08;;;;;;;6.65;55.17;94506.16;4950897;28;20062;-67
2023/01/08 03:10:12;;;;;;;3.50;3.00;;;;;;;6.91;54.28;94504.91;4969289;28;20086;-67
2023/01/08 03:12:56;;;;;;;6.13;4.47;;;;;;;6.30;55.89;94497.84;4982780;28;20423;-67
2023/01/08 03:15:29;;;;;;;5.72;4.18;;;;;;;6.28;56.26;94499.84;4965879;28;20073;-67
2023/01/08 03:17:56;;;;;;;4.80;3.50;;;;;;;5.17;59.91;94497.25;4960627;28;20892;-67
2023/01/08 03:20:22;;;;;;;4.30;3.35;;;;;;;6.39;56.32;94488.84;4954213;28;20047;-67
2023/01/08 03:22:49;;;;;;;5.38;4.00;;;;;;;7.01;54.45;94486.91;4987489;28;20165;-67
2023/01/08 03:25:15;;;;;;;4.88;3.55;;;;;;;7.06;53.96;94485.53;4966226;28;20569;-67
2023/01/08 03:27:46;;;;;;;5.78;3.75;;;;;;;6.66;54.97;94476.06;4955360;28;20048;-67
2023/01/08 03:30:11;;;;;;;6.03;4.47;;;;;;;6.00;57.42;94477.44;4986402;28;20073;-67
2023/01/08 03:32:38;;;;;;;6.32;3.95;;;;;;;6.62;55.15;94477.41;4966320;28;20121;-67
2023/01/08 03:35:04;;;;;;;5.30;3.55;;;;;;;6.54;54.96;94472.22;4950104;28;20090;-67
2023/01/08 03:37:34;;;;;;;5.47;3.35;;;;;;;6.18;56.69;94474.50;4953013;28;20557;-67
2023/01/08 03:40:04;;;;;;;5.53;3.90;;;;;;;6.60;55.62;94468.88;4955534;28;20383;-67
2023/01/08 03:42:30;;;;;;;4.05;2.90;;;;;;;7.11;54.25;94473.41;4955602;28;20499;-67
2023/01/08 03:44:55;;;;;;;3.30;2.92;;;;;;;4.74;60.78;94467.69;4968900;28;20048;-67
2023/01/08 03:47:21;;;;;;;3.50;2.88;;;;;;;5.78;58.58;94463.25;4982521;28;20523;-67
2023/01/08 03:49:46;;;;;;;3.15;2.55;;;;;;;6.57;56.01;94463.94;4952228;28;20073;-67
2023/01/08 03:52:25;;;;;;;4.35;3.53;;;;;;;6.59;55.36;94459.25;4955914;28;20532;-67
2023/01/08 03:54:51;;;;;;;7.68;3.53;;;;;;;5.31;59.25;94468.50;4981564;28;20537;-67
2023/01/08 03:57:16;;;;;;;7.05;5.00;;;;;;;5.83;57.89;94461.72;4979472;28;20112;-67
2023/01/08 03:59:41;;;;;;;3.63;2.88;;;;;;;4.22;63.18;94469.78;4985580;28;20058;-67
2023/01/08 04:02:07;;;;;;;2.50;2.30;;;;;;;4.78;59.88;94469.84;4980298;28;20088;-67
2023/01/08 04:04:33;;;;;;;3.28;2.60;;;;;;;4.96;58.76;94477.50;4981713;28;20056;-67
2023/01/08 04:06:58;;;;;;;3.08;2.42;;;;;;;2.76;67.13;94481.31;4971597;28;20134;-67
2023/01/08 04:09:23;;;;;;;3.65;2.70;;;;;;;5.26;59.08;94465.53;4982121;28;20084;-67
2023/01/08 04:11:49;;;;;;;2.60;1.90;;;;;;;5.34;59.40;94462.88;4982065;28;20558;-68
2023/01/08 04:14:14;;;;;;;2.17;1.98;;;;;;;4.69;61.44;94465.56;4981746;28;20262;-67
2023/01/08 04:16:40;;;;;;;8.25;2.97;;;;;;;5.05;60.41;94457.22;4982156;28;20099;-67
2023/01/08 04:19:05;;;;;;;2.42;2.00;;;;;;;5.66;58.19;94466.31;4981910;28;20418;-67
2023/01/08 04:21:30;;;;;;;6.05;4.88;;;;;;;5.44;59.09;94450.25;4981578;28;20635;-67
2023/01/08 04:23:56;;;;;;;4.53;3.20;;;;;;;5.30;59.47;94456.28;4981993;28;20604;-67
2023/01/08 04:26:21;;;;;;;2.42;2.00;;;;;;;5.68;58.03;94453.72;4981069;28;20094;-67
2023/01/08 04:28:47;;;;;;;2.00;1.85;;;;;;;5.42;58.50;94451.44;4982236;28;20694;-67
2023/01/08 04:31:12;;;;;;;5.97;4.68;;;;;;;5.93;57.19;94442.16;4981759;28;20068;-67
2023/01/08 04:33:37;;;;;;;2.90;2.00;;;;;;;4.91;58.96;94452.63;4981644;28;20661;-67
2023/01/08 04:36:03;;;;;;;5.07;4.03;;;;;;;5.85;57.40;94443.88;4981783;28;20071;-67
2023/01/08 04:38:28;;;;;;;1.90;1.80;;;;;;;4.44;61.36;94450.66;4979483;28;20130;-67
2023/01/08 04:40:57;;;;;;;2.00;1.90;;;;;;;5.01;60.34;94445.34;4983423;28;20065;-67
2023/01/08 04:43:23;;;;;;;5.88;3.67;;;;;;;3.81;64.85;94453.00;4981958;28;20073;-67
2023/01/08 04:45:49;;;;;;;2.60;1.98;;;;;;;4.34;61.79;94447.38;4981839;28;20647;-67
2023/01/08 04:48:14;;;;;;;1.73;1.63;;;;;;;4.25;61.88;94441.28;4990261;28;20150;-67
2023/01/08 04:50:39;;;;;;;2.45;2.25;;;;;;;5.38;58.45;94427.22;4981122;28;20589;-67
2023/01/08 04:53:05;;;;;;;1.33;1.23;;;;;;;5.61;57.41;94442.22;4980696;28;20084;-68
2023/01/08 04:55:32;;;;;;;2.60;2.03;;;;;;;4.65;60.94;94433.44;4981288;28;20087;-67
2023/01/08 04:57:57;;;;;;;4.07;3.00;;;;;;;4.66;60.44;94432.44;4981278;28;20386;-67
2023/01/08 05:00:23;;;;;;;1.70;1.60;;;;;;;3.24;63.81;94429.06;4981249;28;20071;-67
2023/01/08 05:02:48;;;;;;;3.05;2.20;;;;;;;4.64;60.93;94421.25;4980440;28;20092;-67
2023/01/08 05:05:14;;;;;;;2.28;1.65;;;;;;;4.76;60.07;94434.09;4980144;28;20097;-67
2023/01/08 05:07:39;;;;;;;1.40;1.30;;;;;;;5.47;57.42;94414.75;4981527;28;20066;-67
2023/01/08 05:10:05;;;;;;;2.60;2.28;;;;;;;6.07;55.67;94409.69;4979790;28;20091;-67
2023/01/08 05:12:30;;;;;;;1.40;1.30;;;;;;;5.26;57.64;94413.59;4981277;28;20581;-67
2023/01/08 05:14:56;;;;;;;2.97;2.58;;;;;;;5.68;56.82;94413.31;4980056;28;20089;-67
2023/01/08 05:17:21;;;;;;;2.90;2.33;;;;;;;4.19;61.09;94412.97;4980935;28;20146;-67
2023/01/08 05:19:47;;;;;;;2.45;1.42;;;;;;;5.62;57.02;94414.84;4980809;28;20065;-67
2023/01/08 05:22:12;;;;;;;1.35;1.27;;;;;;;4.24;60.46;94409.81;4980524;28;20286;-67
2023/01/08 05:24:37;;;;;;;3.25;1.92;;;;;;;4.09;61.83;94410.53;4980995;28;20660;-68
2023/01/08 05:27:03;;;;;;;1.30;1.20;;;;;;;5.00;58.97;94404.13;4980850;28;20097;-68
2023/01/08 05:29:28;;;;;;;0.93;0.85;;;;;;;5.40;57.36;94404.09;4980903;28;20740;-68
2023/01/08 05:31:54;;;;;;;1.88;1.75;;;;;;;4.90;59.54;94406.97;4979634;28;20075;-68
2023/01/08 05:34:19;;;;;;;1.52;1.30;;;;;;;4.96;58.48;94418.66;4980318;28;20140;-68
2023/01/08 05:36:44;;;;;;;1.23;1.23;;;;;;;4.68;59.12;94414.66;4979828;28;20063;-68
2023/01/08 05:39:10;;;;;;;2.45;1.80;;;;;;;5.43;57.62;94421.38;4981793;28;20103;-68
2023/01/08 05:41:35;;;;;;;1.92;1.02;;;;;;;5.24;57.30;94420.03;4980171;28;20105;-68
2023/01/08 05:44:01;;;;;;;1.40;1.30;;;;;;;5.61;56.61;94421.94;4981106;28;20060;-68
2023/01/08 05:46:26;;;;;;;2.70;2.05;;;;;;;4.35;60.78;94425.28;4980505;28;20154;-68
2023/01/08 05:48:51;;;;;;;0.95;0.95;;;;;;;4.63;59.97;94424.06;4980394;28;20311;-68
2023/01/08 05:51:17;;;;;;;13.02;2.05;;;;;;;4.47;60.10;94420.50;4980544;28;20203;-68
2023/01/08 05:53:42;;;;;;;1.65;1.55;;;;;;;5.10;58.40;94419.75;4980337;28;20115;-68
2023/01/08 05:56:09;;;;;;;2.55;1.75;;;;;;;5.12;58.13;94419.59;4979013;28;20314;-68
2023/01/08 05:58:35;;;;;;;3.28;2.40;;;;;;;5.14;57.94;94423.69;4963943;28;20107;-68
2023/01/08 06:01:08;;;;;;;1.75;1.65;;;;;;;3.37;62.95;94433.03;4978113;28;20394;-68
2023/01/08 06:03:34;;;;;;;1.40;1.30;;;;;;;5.22;57.51;94426.31;4979900;28;20179;-68
2023/01/08 06:06:00;;;;;;;1.50;1.38;;;;;;;5.07;57.45;94415.66;4979628;28;20076;-68
2023/01/08 06:08:26;;;;;;;2.45;1.88;;;;;;;4.68;59.38;94425.22;4980477;28;20075;-68
2023/01/08 06:10:52;;;;;;;1.42;1.33;;;;;;;5.38;56.71;94408.75;4980186;28;20186;-68
2023/01/08 06:13:17;;;;;;;1.98;1.50;;;;;;;5.84;55.98;94409.72;4979801;28;20349;-68
2023/01/08 06:15:43;;;;;;;1.45;1.40;;;;;;;4.66;59.20;94418.47;4980207;28;20350;-68
2023/01/08 06:18:08;;;;;;;1.40;1.02;;;;;;;4.95;57.90;94409.09;4979610;28;20086;-68
2023/01/08 06:20:33;;;;;;;1.33;1.25;;;;;;;5.75;56.26;94422.19;4980217;28;20059;-68
2023/01/08 06:22:59;;;;;;;1.30;1.20;;;;;;;4.73;58.68;94411.50;4979445;28;20393;-68
2023/01/08 06:25:24;;;;;;;2.60;2.40;;;;;;;5.21;58.14;94413.28;4978351;28;20083;-68
2023/01/08 06:27:52;;;;;;;1.40;1.20;;;;;;;5.14;57.37;94417.63;4980883;28;20074;-67
2023/01/08 06:30:18;;;;;;;2.80;2.17;;;;;;;4.68;59.51;94417.28;4979968;28;20446;-68
2023/01/08 06:32:43;;;;;;;2.13;1.90;;;;;;;5.01;58.43;94410.22;4979497;28;20056;-68
2023/01/08 06:35:09;;;;;;;1.50;1.40;;;;;;;4.64;59.36;94401.97;4978871;28;20123;-68
2023/01/08 06:37:34;;;;;;;2.35;1.60;;;;;;;4.59;59.31;94407.75;4978796;28;20094;-68
2023/01/08 06:40:00;;;;;;;0.82;0.82;;;;;;;5.28;57.28;94405.50;4979475;28;20097;-68
2023/01/08 06:42:25;;;;;;;1.77;1.45;;;;;;;4.47;59.17;94415.22;4978560;28;20335;-68
2023/01/08 06:44:50;;;;;;;3.15;2.45;;;;;;;5.72;56.06;94396.13;4979278;28;20070;-68
2023/01/08 06:47:16;;;;;;;1.80;1.40;;;;;;;3.62;60.11;94418.13;4978961;28;20084;-68
2023/01/08 06:49:41;;;;;;;1.00;0.90;;;;;;;4.25;60.56;94407.03;4978661;28;20626;-68
2023/01/08 06:52:06;;;;;;;1.27;1.10;;;;;;;4.72;59.36;94412.50;4979152;28;20069;-68
2023/01/08 06:54:32;;;;;;;1.10;1.10;;;;;;;5.33;56.56;94397.88;4978325;28;20523;-68
2023/01/08 06:56:57;;;;;;;2.50;1.67;;;;;;;5.46;56.55;94415.78;4978433;28;20073;-68
2023/01/08 06:59:23;;;;;;;1.23;1.13;;;;;;;5.56;55.67;94410.25;4979234;28;20064;-68
2023/01/08 07:01:48;;;;;;;1.65;1.20;;;;;;;5.47;55.55;94418.22;4966643;28;20590;-68
2023/01/08 07:04:14;;;;;;;1.63;1.33;;;;;;;5.21;56.91;94424.66;4978979;28;20070;-68
2023/01/08 07:06:39;;;;;;;3.45;2.25;;;;;;;5.36;56.64;94426.56;4978767;28;20109;-68
2023/01/08 07:09:04;;;;;;;2.13;1.40;;;;;;;5.31;56.42;94432.34;4978525;28;20117;-68
2023/01/08 07:11:30;;;;;;;1.50;1.40;;;;;;;4.57;58.60;94426.41;4979161;28;20060;-68
2023/01/08 07:13:55;;;;;;;1.63;1.52;;;;;;;5.01;58.87;94423.41;4978924;28;20096;-68
2023/01/08 07:16:21;;;;;;;3.08;1.67;;;;;;;4.52;59.94;94426.06;4978763;28;20062;-68
2023/01/08 07:18:46;;;;;;;1.90;1.80;;;;;;;5.08;57.85;94432.31;4978753;28;20426;-68
2023/01/08 07:21:11;;;;;;;1.55;1.45;;;;;;;3.55;63.66;94433.72;4978500;28;20096;-68
2023/01/08 07:23:37;;;;;;;2.30;2.10;;;;;;;4.71;59.91;94437.22;4968392;28;20467;-68
2023/01/08 07:26:03;;;;;;;1.77;1.50;;;;;;;3.26;63.74;94434.16;4978532;28;20527;-68
2023/01/08 07:28:29;;;;;;;2.25;1.73;;;;;;;4.60;59.50;94419.13;4978901;28;20060;-68
2023/01/08 07:30:54;;;;;;;1.70;1.60;;;;;;;5.40;57.51;94425.22;4965482;28;20184;-68
2023/01/08 07:33:19;;;;;;;2.92;2.28;;;;;;;5.52;56.78;94423.00;4978687;28;20093;-68
2023/01/08 07:35:52;;;;;;;2.30;1.60;;;;;;;4.37;60.73;94423.31;4978914;28;20121;-68
2023/01/08 07:38:18;;;;;;;1.98;1.80;;;;;;;5.27;58.20;94425.78;4977831;28;20186;-68
2023/01/08 07:40:43;;;;;;;2.20;2.10;;;;;;;4.73;58.74;94429.16;4982459;28;20811;-68
2023/01/08 07:43:11;;;;;;;3.80;1.60;;;;;;;3.35;62.48;94425.31;4982428;28;20084;-68
2023/01/08 07:45:36;;;;;;;2.08;1.88;;;;;;;5.01;58.75;94418.97;4982634;28;20082;-68
2023/01/08 07:48:02;;;;;;;1.42;1.33;;;;;;;5.18;57.97;94416.28;4981987;28;20119;-68
2023/01/08 07:50:27;;;;;;;2.08;1.85;;;;;;;3.30;63.58;94424.94;4982043;28;20092;-68
2023/01/08 07:52:58;;;;;;;2.42;2.00;;;;;;;5.17;57.99;94415.44;4981137;28;20061;-68
2023/01/08 07:55:24;;;;;;;2.47;1.80;;;;;;;3.94;61.58;94415.63;4982297;28;20694;-68
2023/01/08 07:57:49;;;;;;;1.60;1.50;;;;;;;4.29;60.98;94418.06;4981840;28;20177;-68
2023/01/08 08:00:15;;;;;;;1.55;1.45;;;;;;;3.91;62.83;94432.59;4982215;28;20346;-68
2023/01/08 08:02:40;;;;;;;2.55;1.60;;;;;;;3.45;64.32;94426.97;4980721;28;20119;-68
2023/01/08 08:05:06;;;;;;;1.90;1.80;;;;;;;5.06;59.39;94423.75;4980273;28;20237;-68
2023/01/08 08:07:32;;;;;;;2.47;2.28;;;;;;;5.13;58.98;94424.69;4981469;28;20216;-68
2023/01/08 08:09:57;;;;;;;1.52;1.45;;;;;;;5.79;56.76;94414.72;4981655;28;20425;-68
2023/01/08 08:12:22;;;;;;;1.35;1.25;;;;;;;4.71;58.19;94418.75;4981509;28;20051;-68
2023/01/08 08:14:48;;;;;;;2.85;1.50;;;;;;;4.38;60.79;94421.47;4981486;28;20518;-68
2023/01/08 08:17:13;;;;;;;1.40;1.27;;;;;;;5.42;56.85;94419.75;4980833;28;20086;-68
2023/01/08 08:19:42;;;;;;;1.77;1.52;;;;;;;5.24;57.43;94422.69;4982094;28;20760;-68
2023/01/08 08:22:08;;;;;;;1.50;1.40;;;;;;;5.09;58.23;94420.75;4981142;28;20147;-68
2023/01/08 08:24:33;;;;;;;1.50;1.40;;;;;;;5.42;56.51;94432.97;4981020;28;20497;-68
2023/01/08 08:26:58;;;;;;;2.65;1.60;;;;;;;5.64;56.49;94426.03;4982428;28;20104;-68
2023/01/08 08:29:24;;;;;;;2.50;1.45;;;;;;;5.67;56.54;94411.66;4981265;28;20101;-68
2023/01/08 08:31:49;;;;;;;1.67;1.58;;;;;;;6.16;54.49;94415.72;4981464;28;20721;-68
2023/01/08 08:34:14;;;;;;;1.65;1.55;;;;;;;4.93;57.61;94424.28;4980221;28;20090;-68
2023/01/08 08:36:40;;;;;;;4.68;1.80;;;;;;;4.28;61.86;94424.31;4981141;28;20061;-68
2023/01/08 08:39:05;;;;;;;1.92;1.50;;;;;;;4.55;58.46;94422.25;4980865;28;20191;-68
2023/01/08 08:41:31;;;;;;;2.78;1.77;;;;;;;4.21;61.84;94426.00;4980524;28;20557;-68
2023/01/08 08:43:56;;;;;;;1.48;1.38;;;;;;;5.43;56.78;94408.19;4979378;28;20073;-68
2023/01/08 08:46:22;;;;;;;1.80;1.50;;;;;;;4.50;59.45;94408.78;4980454;28;20089;-68
2023/01/08 08:48:48;;;;;;;1.95;1.80;;;;;;;5.54;56.40;94415.72;4980575;28;20073;-67
2023/01/08 08:51:13;;;;;;;1.50;1.40;;;;;;;4.19;59.62;94424.31;4981574;28;20337;-68
2023/01/08 08:53:39;;;;;;;1.63;1.52;;;;;;;4.90;58.58;94414.88;4980159;28;20082;-68
2023/01/08 08:56:04;;;;;;;2.85;1.50;;;;;;;4.31;59.07;94429.25;4980011;28;20071;-68
2023/01/08 08:58:30;;;;;;;1.25;1.15;;;;;;;4.79;59.29;94417.91;4979682;28;20096;-68
2023/01/08 09:01:00;;;;;;;1.40;1.30;;;;;;;5.21;57.51;94411.47;4980060;28;20060;-67
2023/01/08 09:03:25;;;;;;;2.35;1.60;;;;;;;4.96;58.78;94416.84;4980835;28;20126;-67
2023/01/08 09:05:50;;;;;;;1.77;1.67;;;;;;;5.07;58.32;94410.38;4980245;28;20167;-68
2023/01/08 09:08:16;;;;;;;1.70;1.60;;;;;;;4.44;60.49;94418.19;4980913;28;20375;-67
2023/01/08 09:10:42;;;;;;;1.30;1.20;;;;;;;5.32;57.79;94414.72;4979945;28;20085;-68
2023/01/08 09:13:07;;;;;;;1.48;1.38;;;;;;;4.42;59.99;94417.56;4980531;28;20386;-68
2023/01/08 09:15:33;;;;;;;1.55;1.45;;;;;;;5.29;58.29;94407.13;4980764;28;20269;-68
2023/01/08 09:17:58;;;;;;;2.72;1.65;;;;;;;4.33;60.09;94420.19;4980274;28;20088;-68
2023/01/08 09:20:24;;;;;;;1.42;1.33;;;;;;;5.50;56.64;94403.84;4981696;28;20067;-68
2023/01/08 09:22:50;;;;;;;1.98;1.70;;;;;;;5.14;57.93;94410.50;4966972;28;20095;-68
2023/01/08 09:25:15;;;;;;;2.05;1.38;;;;;;;5.36;56.79;94408.06;4979018;28;20095;-68
2023/01/08 09:27:41;;;;;;;2.78;2.13;;;;;;;4.31;60.18;94409.00;4980562;28;20072;-68
2023/01/08 09:30:07;;;;;;;2.25;1.33;;;;;;;4.43;59.52;94408.66;4979893;28;20079;-68
2023/01/08 09:32:32;;;;;;;1.60;1.50;;;;;;;5.40;57.25;94408.53;4980629;28;20531;-68
2023/01/08 09:34:57;;;;;;;3.13;1.90;;;;;;;4.93;58.15;94398.72;4980195;28;20088;-68
2023/01/08 09:37:23;;;;;;;2.72;1.67;;;;;;;4.86;57.96;94397.75;4979788;28;20092;-68
2023/01/08 09:39:49;;;;;;;2.22;2.00;;;;;;;5.30;57.56;94400.84;4968064;28;20176;-68
2023/01/08 09:42:14;;;;;;;2.00;1.90;;;;;;;6.05;55.33;94395.81;4979824;28;20595;-67
2023/01/08 09:44:41;;;;;;;2.30;1.90;;;;;;;6.13;55.22;94405.50;4949392;28;20102;-67
2023/01/08 09:47:20;;;;;;;1.50;1.40;;;;;;;6.28;54.24;94399.41;4978866;28;20425;-68
2023/01/08 09:49:46;;;;;;;1.55;1.45;;;;;;;5.95;55.56;94404.00;4977699;28;20083;-68
2023/01/08 09:52:12;;;;;;;4.10;1.77;;;;;;;4.91;57.01;94410.44;4951648;28;20059;-67
2023/01/08 09:54:37;;;;;;;1.40;1.30;;;;;;;5.12;58.50;94401.97;4963902;28;20597;-67
2023/01/08 09:57:02;;;;;;;2.05;1.73;;;;;;;5.69;56.30;94405.22;4979652;28;20421;-68
2023/01/08 09:59:28;;;;;;;1.63;1.50;;;;;;;5.86;55.75;94397.16;4964147;28;20052;-68
2023/01/08 10:01:53;;;;;;;2.17;1.30;;;;;;;5.58;56.66;94408.28;4965825;28;20088;-67
2023/01/08 10:04:24;;;;;;;6.25;5.13;;;;;;;3.84;59.64;94402.63;4979242;28;20084;-68
2023/01/08 10:06:53;;;;;;;7.25;4.63;;;;;;;5.27;58.49;94398.59;4979023;28;20168;-68
2023/01/08 10:09:22;;;;;;;3.28;2.38;;;;;;;6.16;55.41;94391.09;4962142;28;20080;-68
2023/01/08 10:11:47;;;;;;;4.45;1.58;;;;;;;5.49;56.08;94389.03;4962650;28;20042;-68
2023/01/08 10:14:22;;;;;;;3.42;1.58;;;;;;;3.94;60.85;94391.94;4965542;28;20571;-68
2023/01/08 10:16:55;;;;;;;1.48;1.38;;;;;;;5.56;56.78;94387.31;4950502;28;20364;-68
2023/01/08 10:19:21;;;;;;;7.47;4.18;;;;;;;6.02;55.31;94382.16;4965408;28;20089;-68
2023/01/08 10:21:46;;;;;;;1.20;1.10;;;;;;;5.41;56.86;94389.88;4966173;28;20089;-68
2023/01/08 10:24:12;;;;;;;1.10;1.00;;;;;;;5.81;54.39;94378.38;4979623;28;20060;-68
2023/01/08 10:26:37;;;;;;;0.90;0.90;;;;;;;5.00;57.52;94369.03;4969109;28;20087;-68
2023/01/08 10:29:20;;;;;;;1.42;0.98;;;;;;;5.25;57.15;94368.88;4980385;28;20474;-67
2023/01/08 10:31:51;;;;;;;1.23;1.00;;;;;;;4.37;57.38;94385.59;4979759;28;20526;-67
2023/01/08 10:34:39;;;;;;;1.20;1.10;;;;;;;4.91;59.41;94366.44;4981597;28;20079;-67
2023/01/08 10:37:22;;;;;;;1.73;1.13;;;;;;;5.38;55.89;94363.88;4966149;28;20556;-67
2023/01/08 10:39:47;;;;;;;1.77;1.65;;;;;;;5.86;56.16;94362.81;4981669;28;20668;-67
2023/01/08 10:42:13;;;;;;;1.80;1.60;;;;;;;3.68;61.04;94364.81;4978720;28;20087;-67
2023/01/08 10:44:38;;;;;;;1.33;1.23;;;;;;;2.85;64.68;94366.50;4973232;28;20062;-67
2023/01/08 10:47:04;;;;;;;1.50;1.40;;;;;;;4.66;59.55;94363.91;4963703;28;20078;-67
2023/01/08 10:49:40;;;;;;;2.65;1.83;;;;;;;2.54;65.14;94370.50;4946625;28;20130;-67
2023/01/08 10:52:20;;;;;;;4.70;3.00;;;;;;;4.31;61.56;94350.19;4967708;28;20146;-68
2023/01/08 10:54:46;;;;;;;2.80;1.63;;;;;;;5.38;58.41;94342.75;4964476;28;20093;-67
2023/01/08 10:57:26;;;;;;;1.60;1.50;;;;;;;4.93;59.29;94345.16;4965431;28;20090;-67
2023/01/08 10:59:51;;;;;;;1.90;1.38;;;;;;;4.36;60.85;94339.16;4981841;28;20090;-67
2023/01/08 11:02:33;;;;;;;1.83;1.50;;;;;;;5.95;55.90;94331.88;4980959;28;20184;-67
2023/01/08 11:04:59;;;;;;;2.10;1.50;;;;;;;6.19;55.32;94325.47;4964985;28;20054;-68
2023/01/08 11:07:24;;;;;;;4.10;2.55;;;;;;;5.45;57.27;94330.47;4979907;28;20046;-67
2023/01/08 11:09:50;;;;;;;1.55;1.45;;;;;;;6.61;54.14;94330.34;4965533;28;20088;-68
2023/01/08 11:12:25;;;;;;;2.47;1.98;;;;;;;5.98;55.20;94327.03;4980740;28;20317;-67
2023/01/08 11:14:50;;;;;;;2.30;1.83;;;;;;;6.88;53.19;94320.88;4985889;28;20080;-68
2023/01/08 11:17:15;;;;;;;2.65;2.17;;;;;;;5.94;54.03;94320.47;4969711;28;20594;-68
2023/01/08 11:19:41;;;;;;;1.92;1.50;;;;;;;6.54;53.80;94317.03;4987262;28;20533;-68
2023/01/08 11:22:20;;;;;;;4.03;1.20;;;;;;;6.28;53.27;94314.81;4983656;28;20401;-67
2023/01/08 11:24:45;;;;;;;3.05;1.45;;;;;;;6.42;52.87;94300.78;4984894;28;20061;-67
2023/01/08 11:27:29;;;;;;;3.92;2.78;;;;;;;6.54;53.45;94295.03;4969529;28;20089;-68
2023/01/08 11:30:11;;;;;;;1.40;1.30;;;;;;;5.52;54.94;94291.00;4985489;28;20081;-67
2023/01/08 11:32:48;;;;;;;2.33;1.35;;;;;;;5.73;55.54;94297.41;4984319;28;20154;-68
2023/01/08 11:35:27;;;;;;;2.13;1.50;;;;;;;6.18;54.28;94286.03;4984939;28;20077;-67
2023/01/08 11:38:00;;;;;;;2.45;1.83;;;;;;;6.40;53.48;94289.56;4984069;28;20107;-68
2023/01/08 11:40:48;;;;;;;1.50;1.40;;;;;;;5.62;55.87;94277.53;4955820;28;20098;-68
2023/01/08 11:43:35;;;;;;;2.60;1.83;;;;;;;6.46;53.18;94256.28;4986632;28;20096;-68